sensor_id;sensor_type;location;lat;lon;timestamp;temperature;humidity
12481;DHT22;6305;48.398;11.762;2022-11-20T00:01:07;4.90;99.90
12481;DHT22;6305;48.398;11.762;2022-11-20T00:03:35;4.90;99.90
12481;DHT22;6305;48.398;11.762;2022-11-20T00:06:05;4.90;99.90
12481;DHT22;6305;48.398;11.762;2022-11-20T00:08:32;4.90;99.90
12481;DHT22;6305;48.398;11.762;2022-11-20T00:11:03;4.90;99.90
12481;DHT22;6305;48.398;11.762;2022-11-20T00:13:30;4.90;99.90
12481;DHT22;6305;48.398;11.762;2022-11-20T00:15:58;4.90;99.90
12481;DHT22;6305;48.398;11.762;2022-11-20T00:18:25;4.90;99.90
12481;DHT22;6305;48.398;11.762;2022-11-20T00:20:51;4.90;99.90
12481;DHT22;6305;48.398;11.762;2022-11-20T00:23:20;4.90;99.90
12481;DHT22;6305;48.398;11.762;2022-11-20T00:25:47;4.90;99.90
12481;DHT22;6305;48.398;11.762;2022-11-20T00:28:13;4.90;99.90
12481;DHT22;6305;48.398;11.762;2022-11-20T00:30:40;4.90;99.90
12481;DHT22;6305;48.398;11.762;2022-11-20T00:33:07;4.90;99.90
12481;DHT22;6305;48.398;11.762;2022-11-20T00:35:34;4.90;99.90
12481;DHT22;6305;48.398;11.762;2022-11-20T00:38:00;4.90;99.90
12481;DHT22;6305;48.398;11.762;2022-11-20T00:40:29;4.90;99.90
12481;DHT22;6305;48.398;11.762;2022-11-20T00:42:55;4.90;99.90
12481;DHT22;6305;48.398;11.762;2022-11-20T00:45:22;4.90;99.90
12481;DHT22;6305;48.398;11.762;2022-11-20T00:47:49;4.90;99.90
12481;DHT22;6305;48.398;11.762;2022-11-20T00:50:16;4.90;99.90
12481;DHT22;6305;48.398;11.762;2022-11-20T00:52:42;4.90;99.90
12481;DHT22;6305;48.398;11.762;2022-11-20T00:55:09;4.90;99.90
12481;DHT22;6305;48.398;11.762;2022-11-20T00:57:37;4.90;99.90
12481;DHT22;6305;48.398;11.762;2022-11-20T01:00:05;4.90;99.90
12481;DHT22;6305;48.398;11.762;2022-11-20T01:02:32;4.90;99.90
12481;DHT22;6305;48.398;11.762;2022-11-20T01:04:59;4.90;99.90
12481;DHT22;6305;48.398;11.762;2022-11-20T01:07:26;4.90;99.90
12481;DHT22;6305;48.398;11.762;2022-11-20T01:09:53;4.90;99.90
12481;DHT22;6305;48.398;11.762;2022-11-20T01:12:19;4.90;99.90
12481;DHT22;6305;48.398;11.762;2022-11-20T01:14:48;4.90;99.90
12481;DHT22;6305;48.398;11.762;2022-11-20T01:17:15;4.90;99.90
12481;DHT22;6305;48.398;11.762;2022-11-20T01:19:42;4.90;99.90
12481;DHT22;6305;48.398;11.762;2022-11-20T01:22:09;4.90;99.90
12481;DHT22;6305;48.398;11.762;2022-11-20T01:24:36;4.90;99.90
12481;DHT22;6305;48.398;11.762;2022-11-20T01:27:03;4.90;99.90
12481;DHT22;6305;48.398;11.762;2022-11-20T01:29:30;4.90;99.90
12481;DHT22;6305;48.398;11.762;2022-11-20T01:31:58;4.90;99.90
12481;DHT22;6305;48.398;11.762;2022-11-20T01:34:25;4.90;99.90
12481;DHT22;6305;48.398;11.762;2022-11-20T01:36:52;4.90;99.90
12481;DHT22;6305;48.398;11.762;2022-11-20T01:39:20;4.90;99.90
12481;DHT22;6305;48.398;11.762;2022-11-20T01:41:48;4.90;99.90
12481;DHT22;6305;48.398;11.762;2022-11-20T01:44:54;4.90;99.90
12481;DHT22;6305;48.398;11.762;2022-11-20T01:47:27;4.90;99.90
12481;DHT22;6305;48.398;11.762;2022-11-20T01:49:58;4.80;99.90
12481;DHT22;6305;48.398;11.762;2022-11-20T01:52:30;4.90;99.90
12481;DHT22;6305;48.398;11.762;2022-11-20T01:55:01;4.80;99.90
12481;DHT22;6305;48.398;11.762;2022-11-20T01:57:32;4.80;99.90
12481;DHT22;6305;48.398;11.762;2022-11-20T02:00:04;4.80;99.90
12481;DHT22;6305;48.398;11.762;2022-11-20T02:02:34;4.80;99.90
12481;DHT22;6305;48.398;11.762;2022-11-20T02:05:04;4.80;99.90
12481;DHT22;6305;48.398;11.762;2022-11-20T02:07:35;4.80;99.90
12481;DHT22;6305;48.398;11.762;2022-11-20T02:10:02;4.80;99.90
12481;DHT22;6305;48.398;11.762;2022-11-20T02:12:29;4.80;99.90
12481;DHT22;6305;48.398;11.762;2022-11-20T02:15:14;4.80;99.90
12481;DHT22;6305;48.398;11.762;2022-11-20T02:17:42;4.80;99.90
12481;DHT22;6305;48.398;11.762;2022-11-20T02:20:09;4.80;99.90
12481;DHT22;6305;48.398;11.762;2022-11-20T02:22:43;4.80;99.90
12481;DHT22;6305;48.398;11.762;2022-11-20T02:25:16;4.80;99.90
12481;DHT22;6305;48.398;11.762;2022-11-20T02:27:43;4.70;99.90
12481;DHT22;6305;48.398;11.762;2022-11-20T02:30:12;4.70;99.90
12481;DHT22;6305;48.398;11.762;2022-11-20T02:32:39;4.60;99.90
12481;DHT22;6305;48.398;11.762;2022-11-20T02:35:07;4.60;99.90
12481;DHT22;6305;48.398;11.762;2022-11-20T02:37:37;4.60;99.90
12481;DHT22;6305;48.398;11.762;2022-11-20T02:40:06;4.60;99.90
12481;DHT22;6305;48.398;11.762;2022-11-20T02:42:35;4.60;99.90
12481;DHT22;6305;48.398;11.762;2022-11-20T02:45:02;4.60;99.90
12481;DHT22;6305;48.398;11.762;2022-11-20T02:47:29;4.60;99.90
12481;DHT22;6305;48.398;11.762;2022-11-20T02:49:56;4.60;99.90
12481;DHT22;6305;48.398;11.762;2022-11-20T02:52:23;4.60;99.90
12481;DHT22;6305;48.398;11.762;2022-11-20T02:54:49;4.60;99.90
12481;DHT22;6305;48.398;11.762;2022-11-20T02:57:16;4.50;99.90
12481;DHT22;6305;48.398;11.762;2022-11-20T02:59:44;4.40;99.90
12481;DHT22;6305;48.398;11.762;2022-11-20T03:02:11;4.40;99.90
12481;DHT22;6305;48.398;11.762;2022-11-20T03:04:38;4.40;99.90
12481;DHT22;6305;48.398;11.762;2022-11-20T03:07:05;4.40;99.90
12481;DHT22;6305;48.398;11.762;2022-11-20T03:09:31;4.30;99.90
12481;DHT22;6305;48.398;11.762;2022-11-20T03:11:58;4.30;99.90
12481;DHT22;6305;48.398;11.762;2022-11-20T03:14:26;4.30;99.90
12481;DHT22;6305;48.398;11.762;2022-11-20T03:16:55;4.30;99.90
12481;DHT22;6305;48.398;11.762;2022-11-20T03:19:22;4.30;99.90
12481;DHT22;6305;48.398;11.762;2022-11-20T03:21:49;4.40;99.90
12481;DHT22;6305;48.398;11.762;2022-11-20T03:24:18;4.30;99.90
12481;DHT22;6305;48.398;11.762;2022-11-20T03:26:45;4.30;99.90
12481;DHT22;6305;48.398;11.762;2022-11-20T03:29:12;4.30;99.90
12481;DHT22;6305;48.398;11.762;2022-11-20T03:31:40;4.40;99.90
12481;DHT22;6305;48.398;11.762;2022-11-20T03:34:10;4.30;99.90
12481;DHT22;6305;48.398;11.762;2022-11-20T03:36:37;4.30;99.90
12481;DHT22;6305;48.398;11.762;2022-11-20T03:39:05;4.30;99.90
12481;DHT22;6305;48.398;11.762;2022-11-20T03:41:36;4.30;99.90
12481;DHT22;6305;48.398;11.762;2022-11-20T03:44:07;4.30;99.90
12481;DHT22;6305;48.398;11.762;2022-11-20T03:46:34;4.30;99.90
12481;DHT22;6305;48.398;11.762;2022-11-20T03:49:02;4.30;99.90
12481;DHT22;6305;48.398;11.762;2022-11-20T03:51:31;4.30;99.90
12481;DHT22;6305;48.398;11.762;2022-11-20T03:53:59;4.30;99.90
12481;DHT22;6305;48.398;11.762;2022-11-20T03:56:28;4.30;99.90
12481;DHT22;6305;48.398;11.762;2022-11-20T03:58:56;4.30;99.90
12481;DHT22;6305;48.398;11.762;2022-11-20T04:01:28;4.40;99.90
12481;DHT22;6305;48.398;11.762;2022-11-20T04:03:56;4.30;99.90
12481;DHT22;6305;48.398;11.762;2022-11-20T04:06:25;4.30;99.90
12481;DHT22;6305;48.398;11.762;2022-11-20T04:08:55;4.40;99.90
12481;DHT22;6305;48.398;11.762;2022-11-20T04:11:24;4.40;99.90
12481;DHT22;6305;48.398;11.762;2022-11-20T04:13:52;4.40;99.90
12481;DHT22;6305;48.398;11.762;2022-11-20T04:16:20;4.40;99.90
12481;DHT22;6305;48.398;11.762;2022-11-20T04:18:50;4.40;99.90
12481;DHT22;6305;48.398;11.762;2022-11-20T04:21:17;4.30;99.90
12481;DHT22;6305;48.398;11.762;2022-11-20T04:23:44;4.30;99.90
12481;DHT22;6305;48.398;11.762;2022-11-20T04:26:12;4.30;99.90
12481;DHT22;6305;48.398;11.762;2022-11-20T04:28:39;4.30;99.90
12481;DHT22;6305;48.398;11.762;2022-11-20T04:31:08;4.30;99.90
12481;DHT22;6305;48.398;11.762;2022-11-20T04:33:36;4.30;99.90
12481;DHT22;6305;48.398;11.762;2022-11-20T04:36:04;4.30;99.90
12481;DHT22;6305;48.398;11.762;2022-11-20T04:38:32;4.30;99.90
12481;DHT22;6305;48.398;11.762;2022-11-20T04:40:59;4.30;99.90
12481;DHT22;6305;48.398;11.762;2022-11-20T04:43:28;4.30;99.90
12481;DHT22;6305;48.398;11.762;2022-11-20T04:45:55;4.30;99.90
12481;DHT22;6305;48.398;11.762;2022-11-20T04:48:22;4.20;99.90
12481;DHT22;6305;48.398;11.762;2022-11-20T04:50:50;4.30;99.90
12481;DHT22;6305;48.398;11.762;2022-11-20T04:53:17;4.30;99.90
12481;DHT22;6305;48.398;11.762;2022-11-20T04:55:44;4.20;99.90
12481;DHT22;6305;48.398;11.762;2022-11-20T04:58:11;4.20;99.90
12481;DHT22;6305;48.398;11.762;2022-11-20T05:00:39;4.20;99.90
12481;DHT22;6305;48.398;11.762;2022-11-20T05:03:06;4.20;99.90
12481;DHT22;6305;48.398;11.762;2022-11-20T05:05:34;4.20;99.90
12481;DHT22;6305;48.398;11.762;2022-11-20T05:08:01;4.20;99.90
12481;DHT22;6305;48.398;11.762;2022-11-20T05:10:28;4.20;99.90
12481;DHT22;6305;48.398;11.762;2022-11-20T05:12:55;4.20;99.90
12481;DHT22;6305;48.398;11.762;2022-11-20T05:15:23;4.10;99.90
12481;DHT22;6305;48.398;11.762;2022-11-20T05:17:52;4.10;99.90
12481;DHT22;6305;48.398;11.762;2022-11-20T05:20:19;4.20;99.90
12481;DHT22;6305;48.398;11.762;2022-11-20T05:22:46;4.10;99.90
12481;DHT22;6305;48.398;11.762;2022-11-20T05:25:16;4.10;99.90
12481;DHT22;6305;48.398;11.762;2022-11-20T05:27:43;4.10;99.90
12481;DHT22;6305;48.398;11.762;2022-11-20T05:30:11;4.10;99.90
12481;DHT22;6305;48.398;11.762;2022-11-20T05:32:38;4.10;99.90
12481;DHT22;6305;48.398;11.762;2022-11-20T05:35:07;4.10;99.90
12481;DHT22;6305;48.398;11.762;2022-11-20T05:37:37;4.10;99.90
12481;DHT22;6305;48.398;11.762;2022-11-20T05:40:05;4.10;99.90
12481;DHT22;6305;48.398;11.762;2022-11-20T05:42:32;4.10;99.90
12481;DHT22;6305;48.398;11.762;2022-11-20T05:44:59;4.10;99.90
12481;DHT22;6305;48.398;11.762;2022-11-20T05:47:26;4.00;99.90
12481;DHT22;6305;48.398;11.762;2022-11-20T05:49:53;4.00;99.90
12481;DHT22;6305;48.398;11.762;2022-11-20T05:52:22;4.00;99.90
12481;DHT22;6305;48.398;11.762;2022-11-20T05:54:48;4.00;99.90
12481;DHT22;6305;48.398;11.762;2022-11-20T05:57:16;4.00;99.90
12481;DHT22;6305;48.398;11.762;2022-11-20T05:59:43;4.00;99.90
12481;DHT22;6305;48.398;11.762;2022-11-20T06:02:09;4.00;99.90
12481;DHT22;6305;48.398;11.762;2022-11-20T06:04:36;4.00;99.90
12481;DHT22;6305;48.398;11.762;2022-11-20T06:07:04;3.90;99.90
12481;DHT22;6305;48.398;11.762;2022-11-20T06:09:32;3.90;99.90
12481;DHT22;6305;48.398;11.762;2022-11-20T06:11:59;3.80;99.90
12481;DHT22;6305;48.398;11.762;2022-11-20T06:14:26;3.70;99.90
12481;DHT22;6305;48.398;11.762;2022-11-20T06:16:53;3.70;99.90
12481;DHT22;6305;48.398;11.762;2022-11-20T06:19:20;3.60;99.90
12481;DHT22;6305;48.398;11.762;2022-11-20T06:21:47;3.50;99.90
12481;DHT22;6305;48.398;11.762;2022-11-20T06:24:14;3.40;99.90
12481;DHT22;6305;48.398;11.762;2022-11-20T06:26:43;3.30;99.90
12481;DHT22;6305;48.398;11.762;2022-11-20T06:29:10;3.20;99.90
12481;DHT22;6305;48.398;11.762;2022-11-20T06:31:37;3.20;99.90
12481;DHT22;6305;48.398;11.762;2022-11-20T06:34:05;3.20;99.90
12481;DHT22;6305;48.398;11.762;2022-11-20T06:36:33;3.30;99.90
12481;DHT22;6305;48.398;11.762;2022-11-20T06:39:01;3.40;99.90
12481;DHT22;6305;48.398;11.762;2022-11-20T06:41:28;3.50;99.90
12481;DHT22;6305;48.398;11.762;2022-11-20T06:43:56;3.60;99.90
12481;DHT22;6305;48.398;11.762;2022-11-20T06:46:23;3.70;99.90
12481;DHT22;6305;48.398;11.762;2022-11-20T06:48:50;3.70;99.90
12481;DHT22;6305;48.398;11.762;2022-11-20T06:51:17;3.80;99.90
12481;DHT22;6305;48.398;11.762;2022-11-20T06:53:44;3.80;99.90
12481;DHT22;6305;48.398;11.762;2022-11-20T06:56:11;3.90;99.90
12481;DHT22;6305;48.398;11.762;2022-11-20T06:58:38;3.90;99.90
12481;DHT22;6305;48.398;11.762;2022-11-20T07:01:09;3.80;99.90
12481;DHT22;6305;48.398;11.762;2022-11-20T07:03:36;3.70;99.90
12481;DHT22;6305;48.398;11.762;2022-11-20T07:06:03;3.50;99.90
12481;DHT22;6305;48.398;11.762;2022-11-20T07:08:31;3.40;99.90
12481;DHT22;6305;48.398;11.762;2022-11-20T07:10:59;3.40;99.90
12481;DHT22;6305;48.398;11.762;2022-11-20T07:13:26;3.60;99.90
12481;DHT22;6305;48.398;11.762;2022-11-20T07:15:54;3.80;99.90
12481;DHT22;6305;48.398;11.762;2022-11-20T07:18:22;4.00;99.90
12481;DHT22;6305;48.398;11.762;2022-11-20T07:20:49;4.30;99.90
12481;DHT22;6305;48.398;11.762;2022-11-20T07:23:16;4.40;99.90
12481;DHT22;6305;48.398;11.762;2022-11-20T07:25:43;4.40;99.90
12481;DHT22;6305;48.398;11.762;2022-11-20T07:28:09;4.30;99.90
12481;DHT22;6305;48.398;11.762;2022-11-20T07:30:36;4.30;99.90
12481;DHT22;6305;48.398;11.762;2022-11-20T07:33:04;4.40;99.90
12481;DHT22;6305;48.398;11.762;2022-11-20T07:35:32;4.40;99.90
12481;DHT22;6305;48.398;11.762;2022-11-20T07:37:59;4.50;99.90
12481;DHT22;6305;48.398;11.762;2022-11-20T07:40:26;4.50;99.90
12481;DHT22;6305;48.398;11.762;2022-11-20T07:42:54;4.50;99.90
12481;DHT22;6305;48.398;11.762;2022-11-20T07:45:23;4.60;99.90
12481;DHT22;6305;48.398;11.762;2022-11-20T07:47:50;4.60;99.90
12481;DHT22;6305;48.398;11.762;2022-11-20T07:50:18;4.70;99.90
12481;DHT22;6305;48.398;11.762;2022-11-20T07:52:46;4.70;99.90
12481;DHT22;6305;48.398;11.762;2022-11-20T07:55:13;4.80;99.90
12481;DHT22;6305;48.398;11.762;2022-11-20T07:57:41;4.80;99.90
12481;DHT22;6305;48.398;11.762;2022-11-20T08:00:09;4.80;99.90
12481;DHT22;6305;48.398;11.762;2022-11-20T08:02:37;4.80;99.90
12481;DHT22;6305;48.398;11.762;2022-11-20T08:05:06;4.80;99.90
12481;DHT22;6305;48.398;11.762;2022-11-20T08:07:37;4.90;99.90
12481;DHT22;6305;48.398;11.762;2022-11-20T08:10:07;5.00;99.90
12481;DHT22;6305;48.398;11.762;2022-11-20T08:12:34;5.00;99.90
12481;DHT22;6305;48.398;11.762;2022-11-20T08:15:18;5.00;99.90
12481;DHT22;6305;48.398;11.762;2022-11-20T08:17:45;5.10;99.90
12481;DHT22;6305;48.398;11.762;2022-11-20T08:20:12;5.20;99.90
12481;DHT22;6305;48.398;11.762;2022-11-20T08:22:39;5.30;99.90
12481;DHT22;6305;48.398;11.762;2022-11-20T08:25:08;5.30;99.90
12481;DHT22;6305;48.398;11.762;2022-11-20T08:27:35;5.30;99.90
12481;DHT22;6305;48.398;11.762;2022-11-20T08:30:02;5.30;99.90
12481;DHT22;6305;48.398;11.762;2022-11-20T08:32:30;5.40;99.90
12481;DHT22;6305;48.398;11.762;2022-11-20T08:34:56;5.70;99.90
12481;DHT22;6305;48.398;11.762;2022-11-20T08:37:23;6.00;99.90
12481;DHT22;6305;48.398;11.762;2022-11-20T08:39:50;6.30;99.90
12481;DHT22;6305;48.398;11.762;2022-11-20T08:42:20;6.50;99.90
12481;DHT22;6305;48.398;11.762;2022-11-20T08:44:47;6.60;99.90
12481;DHT22;6305;48.398;11.762;2022-11-20T08:47:13;6.60;99.90
12481;DHT22;6305;48.398;11.762;2022-11-20T08:49:40;6.60;99.90
12481;DHT22;6305;48.398;11.762;2022-11-20T08:52:07;6.60;99.90
12481;DHT22;6305;48.398;11.762;2022-11-20T08:54:34;6.60;99.90
12481;DHT22;6305;48.398;11.762;2022-11-20T08:57:01;6.70;99.90
12481;DHT22;6305;48.398;11.762;2022-11-20T08:59:29;6.80;99.90
12481;DHT22;6305;48.398;11.762;2022-11-20T09:01:56;7.00;99.90
12481;DHT22;6305;48.398;11.762;2022-11-20T09:04:23;7.10;99.90
12481;DHT22;6305;48.398;11.762;2022-11-20T09:06:50;7.20;99.90
12481;DHT22;6305;48.398;11.762;2022-11-20T09:09:17;7.20;99.90
12481;DHT22;6305;48.398;11.762;2022-11-20T09:11:44;7.20;99.90
12481;DHT22;6305;48.398;11.762;2022-11-20T09:14:11;7.20;99.90
12481;DHT22;6305;48.398;11.762;2022-11-20T09:16:39;7.30;99.90
12481;DHT22;6305;48.398;11.762;2022-11-20T09:19:06;7.50;99.90
12481;DHT22;6305;48.398;11.762;2022-11-20T09:21:33;7.70;99.90
12481;DHT22;6305;48.398;11.762;2022-11-20T09:24:00;7.80;99.90
12481;DHT22;6305;48.398;11.762;2022-11-20T09:26:26;7.70;99.90
12481;DHT22;6305;48.398;11.762;2022-11-20T09:28:53;7.60;99.90
12481;DHT22;6305;48.398;11.762;2022-11-20T09:31:23;7.50;99.90
12481;DHT22;6305;48.398;11.762;2022-11-20T09:33:52;7.40;99.90
12481;DHT22;6305;48.398;11.762;2022-11-20T09:36:19;7.50;99.90
12481;DHT22;6305;48.398;11.762;2022-11-20T09:38:46;7.70;99.90
12481;DHT22;6305;48.398;11.762;2022-11-20T09:41:43;7.80;99.90
12481;DHT22;6305;48.398;11.762;2022-11-20T09:44:25;7.90;99.90
12481;DHT22;6305;48.398;11.762;2022-11-20T09:47:02;8.10;99.90
12481;DHT22;6305;48.398;11.762;2022-11-20T09:49:47;8.20;99.90
12481;DHT22;6305;48.398;11.762;2022-11-20T09:52:26;8.20;99.90
12481;DHT22;6305;48.398;11.762;2022-11-20T09:54:56;8.30;99.90
12481;DHT22;6305;48.398;11.762;2022-11-20T09:57:27;8.20;99.90
12481;DHT22;6305;48.398;11.762;2022-11-20T09:59:58;8.20;99.90
12481;DHT22;6305;48.398;11.762;2022-11-20T10:02:29;8.20;99.90
12481;DHT22;6305;48.398;11.762;2022-11-20T10:05:02;8.30;99.90
12481;DHT22;6305;48.398;11.762;2022-11-20T10:07:36;8.30;99.90
12481;DHT22;6305;48.398;11.762;2022-11-20T10:10:05;8.40;99.90
12481;DHT22;6305;48.398;11.762;2022-11-20T10:12:45;8.50;99.90
12481;DHT22;6305;48.398;11.762;2022-11-20T10:15:29;8.60;99.90
12481;DHT22;6305;48.398;11.762;2022-11-20T10:18:11;8.50;99.90
12481;DHT22;6305;48.398;11.762;2022-11-20T10:20:46;8.50;99.90
12481;DHT22;6305;48.398;11.762;2022-11-20T10:23:29;8.50;99.90
12481;DHT22;6305;48.398;11.762;2022-11-20T10:26:02;8.60;99.90
12481;DHT22;6305;48.398;11.762;2022-11-20T10:28:38;8.90;99.90
12481;DHT22;6305;48.398;11.762;2022-11-20T10:31:11;9.00;99.90
12481;DHT22;6305;48.398;11.762;2022-11-20T10:33:41;9.20;99.90
12481;DHT22;6305;48.398;11.762;2022-11-20T10:36:15;9.40;99.90
12481;DHT22;6305;48.398;11.762;2022-11-20T10:38:47;9.70;99.90
12481;DHT22;6305;48.398;11.762;2022-11-20T10:41:20;9.90;99.90
12481;DHT22;6305;48.398;11.762;2022-11-20T10:43:53;10.00;99.90
12481;DHT22;6305;48.398;11.762;2022-11-20T10:46:22;10.00;99.90
12481;DHT22;6305;48.398;11.762;2022-11-20T10:48:49;10.00;99.90
12481;DHT22;6305;48.398;11.762;2022-11-20T10:51:30;9.90;99.90
12481;DHT22;6305;48.398;11.762;2022-11-20T10:54:04;9.90;99.90
12481;DHT22;6305;48.398;11.762;2022-11-20T10:56:38;10.30;99.90
12481;DHT22;6305;48.398;11.762;2022-11-20T10:59:38;10.50;99.90
12481;DHT22;6305;48.398;11.762;2022-11-20T11:02:19;10.50;99.90
12481;DHT22;6305;48.398;11.762;2022-11-20T11:04:47;10.20;99.90
12481;DHT22;6305;48.398;11.762;2022-11-20T11:07:20;9.80;99.90
12481;DHT22;6305;48.398;11.762;2022-11-20T11:09:50;9.40;99.90
12481;DHT22;6305;48.398;11.762;2022-11-20T11:12:17;9.10;99.90
12481;DHT22;6305;48.398;11.762;2022-11-20T11:14:49;8.80;99.90
12481;DHT22;6305;48.398;11.762;2022-11-20T11:17:29;8.60;99.90
12481;DHT22;6305;48.398;11.762;2022-11-20T11:19:58;8.60;99.90
12481;DHT22;6305;48.398;11.762;2022-11-20T11:22:28;8.50;99.90
12481;DHT22;6305;48.398;11.762;2022-11-20T11:24:55;8.40;99.90
12481;DHT22;6305;48.398;11.762;2022-11-20T11:27:22;8.30;99.90
12481;DHT22;6305;48.398;11.762;2022-11-20T11:29:49;8.30;99.90
12481;DHT22;6305;48.398;11.762;2022-11-20T11:32:19;8.30;99.90
12481;DHT22;6305;48.398;11.762;2022-11-20T11:34:59;8.30;99.90
12481;DHT22;6305;48.398;11.762;2022-11-20T11:37:29;8.40;99.90
12481;DHT22;6305;48.398;11.762;2022-11-20T11:39:59;8.40;99.90
12481;DHT22;6305;48.398;11.762;2022-11-20T11:42:28;8.40;99.90
12481;DHT22;6305;48.398;11.762;2022-11-20T11:44:57;8.40;99.90
12481;DHT22;6305;48.398;11.762;2022-11-20T11:47:36;8.50;99.90
12481;DHT22;6305;48.398;11.762;2022-11-20T11:50:15;8.90;99.90
12481;DHT22;6305;48.398;11.762;2022-11-20T11:52:48;9.30;99.90
12481;DHT22;6305;48.398;11.762;2022-11-20T11:55:22;9.30;99.90
12481;DHT22;6305;48.398;11.762;2022-11-20T11:57:54;9.30;99.90
12481;DHT22;6305;48.398;11.762;2022-11-20T12:00:24;9.00;99.90
12481;DHT22;6305;48.398;11.762;2022-11-20T12:02:59;8.60;99.90
12481;DHT22;6305;48.398;11.762;2022-11-20T12:05:36;8.40;99.90
12481;DHT22;6305;48.398;11.762;2022-11-20T12:08:09;8.40;99.90
12481;DHT22;6305;48.398;11.762;2022-11-20T12:10:45;8.80;99.90
12481;DHT22;6305;48.398;11.762;2022-11-20T12:13:20;9.00;99.90
12481;DHT22;6305;48.398;11.762;2022-11-20T12:15:48;8.90;99.90
12481;DHT22;6305;48.398;11.762;2022-11-20T12:18:18;8.80;99.90
12481;DHT22;6305;48.398;11.762;2022-11-20T12:20:53;8.80;99.90
12481;DHT22;6305;48.398;11.762;2022-11-20T12:23:30;8.80;99.90
12481;DHT22;6305;48.398;11.762;2022-11-20T12:26:08;9.00;99.90
12481;DHT22;6305;48.398;11.762;2022-11-20T12:28:51;9.20;99.90
12481;DHT22;6305;48.398;11.762;2022-11-20T12:31:30;9.10;99.90
12481;DHT22;6305;48.398;11.762;2022-11-20T12:34:19;9.10;99.90
12481;DHT22;6305;48.398;11.762;2022-11-20T12:36:54;9.00;99.90
12481;DHT22;6305;48.398;11.762;2022-11-20T12:39:35;8.90;99.90
12481;DHT22;6305;48.398;11.762;2022-11-20T12:42:28;8.70;99.90
12481;DHT22;6305;48.398;11.762;2022-11-20T12:45:35;8.60;99.90
12481;DHT22;6305;48.398;11.762;2022-11-20T12:48:19;8.70;99.90
12481;DHT22;6305;48.398;11.762;2022-11-20T12:50:57;8.60;99.90
12481;DHT22;6305;48.398;11.762;2022-11-20T12:53:35;8.70;99.90
12481;DHT22;6305;48.398;11.762;2022-11-20T12:56:17;8.60;99.90
12481;DHT22;6305;48.398;11.762;2022-11-20T12:58:56;8.50;99.90
12481;DHT22;6305;48.398;11.762;2022-11-20T13:01:32;8.50;99.90
12481;DHT22;6305;48.398;11.762;2022-11-20T13:04:19;8.40;99.90
12481;DHT22;6305;48.398;11.762;2022-11-20T13:06:48;8.30;99.90
12481;DHT22;6305;48.398;11.762;2022-11-20T13:09:18;8.30;99.90
12481;DHT22;6305;48.398;11.762;2022-11-20T13:11:55;8.20;99.90
12481;DHT22;6305;48.398;11.762;2022-11-20T13:14:33;8.20;99.90
12481;DHT22;6305;48.398;11.762;2022-11-20T13:17:07;8.20;99.90
12481;DHT22;6305;48.398;11.762;2022-11-20T13:19:36;8.10;99.90
12481;DHT22;6305;48.398;11.762;2022-11-20T13:22:04;7.90;99.90
12481;DHT22;6305;48.398;11.762;2022-11-20T13:24:32;7.80;99.90
12481;DHT22;6305;48.398;11.762;2022-11-20T13:27:19;7.70;99.90
12481;DHT22;6305;48.398;11.762;2022-11-20T13:29:47;7.70;99.90
12481;DHT22;6305;48.398;11.762;2022-11-20T13:32:26;7.70;99.90
12481;DHT22;6305;48.398;11.762;2022-11-20T13:34:59;7.60;99.90
12481;DHT22;6305;48.398;11.762;2022-11-20T13:37:32;7.60;99.90
12481;DHT22;6305;48.398;11.762;2022-11-20T13:40:11;7.50;99.90
12481;DHT22;6305;48.398;11.762;2022-11-20T13:42:44;7.30;99.90
12481;DHT22;6305;48.398;11.762;2022-11-20T13:45:22;7.00;99.90
12481;DHT22;6305;48.398;11.762;2022-11-20T13:47:50;6.90;99.90
12481;DHT22;6305;48.398;11.762;2022-11-20T13:50:18;6.70;99.90
12481;DHT22;6305;48.398;11.762;2022-11-20T13:52:50;6.70;99.90
12481;DHT22;6305;48.398;11.762;2022-11-20T13:55:26;6.70;99.90
12481;DHT22;6305;48.398;11.762;2022-11-20T13:58:09;6.70;99.90
12481;DHT22;6305;48.398;11.762;2022-11-20T14:00:44;6.80;99.90
12481;DHT22;6305;48.398;11.762;2022-11-20T14:03:18;6.90;99.90
12481;DHT22;6305;48.398;11.762;2022-11-20T14:05:50;7.00;99.90
12481;DHT22;6305;48.398;11.762;2022-11-20T14:08:24;7.10;99.90
12481;DHT22;6305;48.398;11.762;2022-11-20T14:11:03;7.10;99.90
12481;DHT22;6305;48.398;11.762;2022-11-20T14:13:31;7.10;99.90
12481;DHT22;6305;48.398;11.762;2022-11-20T14:15:58;7.10;99.90
12481;DHT22;6305;48.398;11.762;2022-11-20T14:18:26;7.10;99.90
12481;DHT22;6305;48.398;11.762;2022-11-20T14:20:53;7.10;99.90
12481;DHT22;6305;48.398;11.762;2022-11-20T14:23:27;7.10;99.90
12481;DHT22;6305;48.398;11.762;2022-11-20T14:25:55;7.00;99.90
12481;DHT22;6305;48.398;11.762;2022-11-20T14:28:25;7.00;99.90
12481;DHT22;6305;48.398;11.762;2022-11-20T14:30:54;7.00;99.90
12481;DHT22;6305;48.398;11.762;2022-11-20T14:33:22;6.90;99.90
12481;DHT22;6305;48.398;11.762;2022-11-20T14:35:52;6.90;99.90
12481;DHT22;6305;48.398;11.762;2022-11-20T14:38:23;6.80;99.90
12481;DHT22;6305;48.398;11.762;2022-11-20T14:40:51;6.80;99.90
12481;DHT22;6305;48.398;11.762;2022-11-20T14:43:22;6.70;99.90
12481;DHT22;6305;48.398;11.762;2022-11-20T14:45:57;6.70;99.90
12481;DHT22;6305;48.398;11.762;2022-11-20T14:48:29;6.70;99.90
12481;DHT22;6305;48.398;11.762;2022-11-20T14:50:56;6.60;99.90
12481;DHT22;6305;48.398;11.762;2022-11-20T14:53:24;6.50;99.90
12481;DHT22;6305;48.398;11.762;2022-11-20T14:55:59;6.50;99.90
12481;DHT22;6305;48.398;11.762;2022-11-20T14:58:27;6.40;99.90
12481;DHT22;6305;48.398;11.762;2022-11-20T15:00:58;6.40;99.90
12481;DHT22;6305;48.398;11.762;2022-11-20T15:03:31;6.30;99.90
12481;DHT22;6305;48.398;11.762;2022-11-20T15:05:58;6.20;99.90
12481;DHT22;6305;48.398;11.762;2022-11-20T15:08:25;6.20;99.90
12481;DHT22;6305;48.398;11.762;2022-11-20T15:10:53;6.20;99.90
12481;DHT22;6305;48.398;11.762;2022-11-20T15:13:25;6.20;99.90
12481;DHT22;6305;48.398;11.762;2022-11-20T15:15:55;6.10;99.90
12481;DHT22;6305;48.398;11.762;2022-11-20T15:18:26;6.10;99.90
12481;DHT22;6305;48.398;11.762;2022-11-20T15:20:55;6.10;99.90
12481;DHT22;6305;48.398;11.762;2022-11-20T15:23:22;6.00;99.90
12481;DHT22;6305;48.398;11.762;2022-11-20T15:25:49;5.90;99.90
12481;DHT22;6305;48.398;11.762;2022-11-20T15:28:19;5.80;99.90
12481;DHT22;6305;48.398;11.762;2022-11-20T15:30:48;5.80;99.90
12481;DHT22;6305;48.398;11.762;2022-11-20T15:33:16;5.70;99.90
12481;DHT22;6305;48.398;11.762;2022-11-20T15:35:44;5.60;99.90
12481;DHT22;6305;48.398;11.762;2022-11-20T15:38:11;5.50;99.90
12481;DHT22;6305;48.398;11.762;2022-11-20T15:40:38;5.30;99.90
12481;DHT22;6305;48.398;11.762;2022-11-20T15:43:06;5.20;99.90
12481;DHT22;6305;48.398;11.762;2022-11-20T15:45:37;5.10;99.90
12481;DHT22;6305;48.398;11.762;2022-11-20T15:48:09;4.90;99.90
12481;DHT22;6305;48.398;11.762;2022-11-20T15:50:38;4.90;99.90
12481;DHT22;6305;48.398;11.762;2022-11-20T15:53:09;4.80;99.90
12481;DHT22;6305;48.398;11.762;2022-11-20T15:55:36;4.70;99.90
12481;DHT22;6305;48.398;11.762;2022-11-20T15:58:03;4.60;99.90
12481;DHT22;6305;48.398;11.762;2022-11-20T16:00:30;4.50;99.90
12481;DHT22;6305;48.398;11.762;2022-11-20T16:02:57;4.40;99.90